createdAt,value
2022-08-10T00:01:53.062Z,98094.58
2022-08-10T00:04:24.031Z,98092.65
2022-08-10T00:06:54.531Z,98097.02
2022-08-10T00:09:24.487Z,98093.59
2022-08-10T00:11:52.844Z,98089.54
2022-08-10T00:14:21.207Z,98090.16
2022-08-10T00:16:49.894Z,98092.33
2022-08-10T00:19:18.264Z,98092.49
2022-08-10T00:21:47.693Z,98088.98
2022-08-10T00:24:16.173Z,98088.38
2022-08-10T00:27:52.094Z,98091.21
2022-08-10T00:29:32.826Z,98088.24
2022-08-10T00:32:01.273Z,98085.76
2022-08-10T00:34:30.894Z,98085.31
2022-08-10T00:37:00.119Z,98081.80
2022-08-10T00:39:29.642Z,98081.41
2022-08-10T00:42:06.897Z,98084.56
2022-08-10T00:44:37.800Z,98084.59
2022-08-10T00:47:06.786Z,98080.58
2022-08-10T00:49:35.584Z,98073.71
2022-08-10T00:52:04.907Z,98072.50
2022-08-10T00:54:35.012Z,98066.86
2022-08-10T00:57:16.363Z,98067.52
2022-08-10T00:59:59.591Z,98067.23
2022-08-10T01:02:32.617Z,98066.74
2022-08-10T01:05:04.779Z,98070.08
2022-08-10T01:07:57.013Z,98071.49
2022-08-10T01:10:43.410Z,98073.27
2022-08-10T01:13:23.261Z,98068.36
2022-08-10T01:16:15.707Z,98067.41
2022-08-10T01:19:00.295Z,98064.20
2022-08-10T01:21:54.168Z,98065.50
2022-08-10T01:24:50.064Z,98067.98
2022-08-10T01:27:42.330Z,98066.67
2022-08-10T01:30:13.545Z,98067.13
2022-08-10T01:32:49.405Z,98065.52
2022-08-10T01:35:25.157Z,98062.41
2022-08-10T01:38:17.498Z,98063.52
2022-08-10T01:40:52.017Z,98066.27
2022-08-10T01:43:21.974Z,98067.17
2022-08-10T01:45:55.738Z,98066.79
2022-08-10T01:48:31.631Z,98066.38
2022-08-10T01:51:11.646Z,98068.17
2022-08-10T01:54:12.644Z,98068.71
2022-08-10T01:56:45.981Z,98068.11
2022-08-10T01:59:19.483Z,98067.23
2022-08-10T02:01:56.416Z,98067.73
2022-08-10T02:04:27.872Z,98066.50
2022-08-10T02:06:57.746Z,98067.36
2022-08-10T02:09:30.611Z,98066.67
2022-08-10T02:12:08.592Z,98063.90
2022-08-10T02:14:42.045Z,98065.88
2022-08-10T02:17:58.664Z,98058.08
2022-08-10T02:20:12.771Z,98052.23
2022-08-10T02:22:43.498Z,98049.85
2022-08-10T02:25:41.644Z,98045.18
2022-08-10T02:28:05.294Z,98043.77
2022-08-10T02:30:34.347Z,98042.63
2022-08-10T02:33:04.052Z,98043.41
2022-08-10T02:35:54.052Z,98043.10
2022-08-10T02:38:58.464Z,98041.02
2022-08-10T02:42:18.242Z,98044.25
2022-08-10T02:45:29.163Z,98048.14
2022-08-10T02:48:16.656Z,98045.92
2022-08-10T02:50:54.169Z,98046.23
2022-08-10T02:53:51.618Z,98047.77
2022-08-10T02:56:41.513Z,98050.60
2022-08-10T02:59:22.261Z,98051.70
2022-08-10T03:01:54.639Z,98052.37
2022-08-10T03:04:55.277Z,98057.30
2022-08-10T03:07:43.929Z,98056.08
2022-08-10T03:10:26.840Z,98055.77
2022-08-10T03:13:08.559Z,98057.98
2022-08-10T03:15:39.170Z,98062.58
2022-08-10T03:18:09.180Z,98063.21
2022-08-10T03:20:40.609Z,98066.20
2022-08-10T03:23:13.808Z,98063.81
2022-08-10T03:25:52.678Z,98062.83
2022-08-10T03:28:25.130Z,98061.55
2022-08-10T03:30:56.049Z,98065.16
2022-08-10T03:33:29.598Z,98063.82
2022-08-10T03:36:41.691Z,98062.30
2022-08-10T03:38:51.840Z,98060.29
2022-08-10T03:41:26.933Z,98063.36
2022-08-10T03:43:59.952Z,98065.83
2022-08-10T03:46:29.859Z,98063.95
2022-08-10T03:49:01.515Z,98066.27
2022-08-10T03:51:31.220Z,98068.95
2022-08-10T03:54:05.495Z,98074.59
2022-08-10T03:56:38.332Z,98075.35
2022-08-10T03:59:09.888Z,98076.30
2022-08-10T04:02:45.176Z,98075.20
2022-08-10T04:04:26.914Z,98076.91
2022-08-10T04:06:59.367Z,98079.38
2022-08-10T04:09:43.404Z,98080.52
2022-08-10T04:12:18.184Z,98080.24
2022-08-10T04:14:49.539Z,98081.64
2022-08-10T04:18:02.668Z,98083.02
2022-08-10T04:20:16.165Z,98086.02
2022-08-10T04:22:46.939Z,98083.11
2022-08-10T04:25:16.566Z,98086.45
2022-08-10T04:27:46.324Z,98085.89
2022-08-10T04:30:14.849Z,98083.64
2022-08-10T04:32:45.787Z,98082.05
2022-08-10T04:35:16.063Z,98078.49
2022-08-10T04:37:47.539Z,98076.29
2022-08-10T04:40:29.966Z,98073.34
2022-08-10T04:43:11.664Z,98073.58
2022-08-10T04:45:47.452Z,98073.81
2022-08-10T04:48:36.749Z,98070.19
2022-08-10T04:51:19.256Z,98068.81
2022-08-10T04:54:03.793Z,98070.26
2022-08-10T04:56:37.911Z,98070.30
2022-08-10T04:59:07.783Z,98069.80
2022-08-10T05:02:21.555Z,98073.30
2022-08-10T05:04:35.744Z,98076.58
2022-08-10T05:07:09.944Z,98076.27
2022-08-10T05:10:04.633Z,98076.04
2022-08-10T05:12:28.108Z,98077.73
2022-08-10T05:14:56.588Z,98078.01
2022-08-10T05:17:24.801Z,98076.38
2022-08-10T05:20:04.007Z,98071.59
2022-08-10T05:22:39.629Z,98075.80
2022-08-10T05:25:12.832Z,98076.13
2022-08-10T05:27:42.693Z,98077.28
2022-08-10T05:30:14.132Z,98078.45
2022-08-10T05:32:56.462Z,98083.09
2022-08-10T05:35:51.855Z,98084.31
2022-08-10T05:38:20.518Z,98089.66
2022-08-10T05:40:50.487Z,98090.89
2022-08-10T05:43:21.116Z,98097.02
2022-08-10T05:46:16.704Z,98092.96
2022-08-10T05:48:58.746Z,98096.42
2022-08-10T05:51:30.140Z,98100.80
2022-08-10T05:54:04.650Z,98103.02
2022-08-10T05:56:54.979Z,98110.95
2022-08-10T06:00:34.839Z,98112.46
2022-08-10T06:02:35.423Z,98113.70
2022-08-10T06:05:19.537Z,98112.84
2022-08-10T06:07:56.956Z,98114.11
2022-08-10T06:10:31.957Z,98119.10
2022-08-10T06:13:30.979Z,98118.88
2022-08-10T06:16:08.326Z,98117.02
2022-08-10T06:18:37.883Z,98118.36
2022-08-10T06:21:07.107Z,98120.27
2022-08-10T06:23:37.341Z,98117.18
2022-08-10T06:26:11.213Z,98117.88
2022-08-10T06:29:01.934Z,98120.59
2022-08-10T06:31:48.237Z,98117.11
2022-08-10T06:34:32.246Z,98116.21
2022-08-10T06:37:04.833Z,98117.98
2022-08-10T06:39:35.236Z,98120.94
2022-08-10T06:42:18.001Z,98122.83
2022-08-10T06:45:08.169Z,98125.38
2022-08-10T06:47:45.061Z,98124.91
2022-08-10T06:50:45.519Z,98129.20
2022-08-10T06:53:14.165Z,98130.49
2022-08-10T06:55:55.455Z,98133.86
2022-08-10T06:58:32.223Z,98130.78
2022-08-10T07:01:04.942Z,98131.84
2022-08-10T07:03:43.112Z,98136.53
2022-08-10T07:06:14.078Z,98135.02
2022-08-10T07:08:43.351Z,98134.02
2022-08-10T07:11:13.788Z,98133.52
2022-08-10T07:14:15.252Z,98131.21
2022-08-10T07:16:33.734Z,98128.38
2022-08-10T07:19:03.013Z,98128.11
2022-08-10T07:21:32.791Z,98132.38
2022-08-10T07:24:03.659Z,98137.05
2022-08-10T07:26:33.430Z,98136.02
2022-08-10T07:29:03.709Z,98136.65
2022-08-10T07:31:55.528Z,98136.39
2022-08-10T07:34:29.083Z,98134.59
2022-08-10T07:37:05.487Z,98136.59
2022-08-10T07:40:03.188Z,98140.16
2022-08-10T07:42:34.161Z,98143.77
2022-08-10T07:45:03.281Z,98140.38
2022-08-10T07:47:52.841Z,98139.80
2022-08-10T07:50:25.820Z,98139.83
2022-08-10T07:52:58.403Z,98140.59
2022-08-10T07:56:03.589Z,98137.79
2022-08-10T07:58:18.502Z,98139.55
2022-08-10T08:00:48.629Z,98141.47
2022-08-10T08:03:21.306Z,98142.80
2022-08-10T08:05:58.076Z,98146.07
2022-08-10T08:08:33.754Z,98152.77
2022-08-10T08:11:03.390Z,98153.80
2022-08-10T08:13:32.434Z,98155.23
2022-08-10T08:16:20.222Z,98159.47
2022-08-10T08:19:23.970Z,98159.17
2022-08-10T08:24:08.954Z,98164.29
2022-08-10T08:24:35.079Z,98166.42
2022-08-10T08:27:04.837Z,98168.69
2022-08-10T08:29:41.558Z,98165.70
2022-08-10T08:32:10.264Z,98163.90
2022-08-10T08:34:41.212Z,98164.65
2022-08-10T08:37:11.542Z,98162.38
2022-08-10T08:39:41.419Z,98163.91
2022-08-10T08:42:38.543Z,98164.56
2022-08-10T08:45:16.378Z,98167.27
2022-08-10T08:48:19.883Z,98170.11
2022-08-10T08:50:57.725Z,98170.67
2022-08-10T08:54:02.199Z,98174.30
2022-08-10T08:56:35.916Z,98173.39
2022-08-10T08:59:25.183Z,98170.90
2022-08-10T09:02:27.038Z,98169.52
2022-08-10T09:05:19.994Z,98169.41
2022-08-10T09:08:08.453Z,98168.82
2022-08-10T09:10:54.954Z,98163.86
2022-08-10T09:13:27.426Z,98166.22
2022-08-10T09:16:01.741Z,98173.99
2022-08-10T09:18:57.255Z,98177.91
2022-08-10T09:22:13.287Z,98186.59
2022-08-10T09:24:54.844Z,98190.13
2022-08-10T09:27:49.266Z,98190.93
2022-08-10T09:30:32.968Z,98190.83
2022-08-10T09:36:26.378Z,98187.52
2022-08-10T09:36:33.002Z,98185.89
2022-08-10T09:40:56.284Z,98185.06
2022-08-10T09:42:43.087Z,98178.86
2022-08-10T09:45:42.770Z,98175.00
2022-08-10T09:48:52.653Z,98170.20
2022-08-10T09:51:47.950Z,98167.40
2022-08-10T09:54:28.018Z,98163.24
2022-08-10T09:57:41.421Z,98163.87
2022-08-10T10:00:16.594Z,98166.52
2022-08-10T10:03:09.494Z,98174.23
2022-08-10T10:06:11.101Z,98176.11
2022-08-10T10:08:58.635Z,98172.04
2022-08-10T10:11:53.282Z,98161.60
2022-08-10T10:14:24.163Z,98162.23
2022-08-10T10:17:04.217Z,98162.38
2022-08-10T10:19:44.753Z,98165.91
2022-08-10T10:22:42.141Z,98167.14
2022-08-10T10:25:50.830Z,98170.77
2022-08-10T10:29:19.720Z,98168.48
2022-08-10T10:31:50.606Z,98162.61
2022-08-10T10:34:29.628Z,98162.69
2022-08-10T10:37:00.726Z,98160.02
2022-08-10T10:39:31.453Z,98159.64
2022-08-10T10:42:49.432Z,98160.35
2022-08-10T10:46:02.082Z,98158.18
2022-08-10T10:49:00.855Z,98156.56
2022-08-10T10:51:45.234Z,98155.00
2022-08-10T10:54:22.087Z,98153.23
2022-08-10T10:57:07.673Z,98155.14
2022-08-10T10:59:56.345Z,98152.45
2022-08-10T11:02:43.956Z,98147.38
2022-08-10T11:05:49.399Z,98146.80
2022-08-10T11:08:28.727Z,98146.46
2022-08-10T11:12:00.613Z,98146.84
2022-08-10T11:14:31.645Z,98147.16
2022-08-10T11:17:11.593Z,98148.33
2022-08-10T11:20:03.390Z,98148.73
2022-08-10T11:22:58.016Z,98149.49
2022-08-10T11:25:31.933Z,98149.63
2022-08-10T11:28:13.010Z,98147.54
2022-08-10T11:30:52.849Z,98149.71
2022-08-10T11:34:31.999Z,98145.05
2022-08-10T11:36:59.756Z,98143.17
2022-08-10T11:39:52.847Z,98140.46
2022-08-10T11:42:43.927Z,98141.42
2022-08-10T11:45:22.212Z,98137.80
2022-08-10T11:47:57.173Z,98138.19
2022-08-10T11:50:29.271Z,98134.02
2022-08-10T11:53:10.316Z,98136.37
2022-08-10T11:55:38.383Z,98132.81
2022-08-10T11:58:31.855Z,98136.25
2022-08-10T12:01:04.007Z,98136.52
2022-08-10T12:03:34.998Z,98133.90
2022-08-10T12:06:05.733Z,98126.45
2022-08-10T12:10:04.375Z,98127.88
2022-08-10T12:11:26.589Z,98126.17
2022-08-10T12:14:21.914Z,98123.08
2022-08-10T12:17:03.547Z,98118.02
2022-08-10T12:20:01.923Z,98117.14
2022-08-10T12:22:42.673Z,98117.45
2022-08-10T12:25:54.798Z,98112.95
2022-08-10T12:28:14.306Z,98110.02
2022-08-10T12:30:49.284Z,98111.52
2022-08-10T12:33:25.538Z,98110.14
2022-08-10T12:36:17.451Z,98112.14
2022-08-10T12:39:02.054Z,98103.99
2022-08-10T12:41:44.920Z,98099.83
2022-08-10T12:44:21.422Z,98100.63
2022-08-10T12:47:05.768Z,98094.61
2022-08-10T12:50:13.554Z,98093.09
2022-08-10T12:52:52.912Z,98096.61
2022-08-10T12:55:21.601Z,98099.25
2022-08-10T12:57:55.611Z,98095.89
2022-08-10T13:00:32.850Z,98094.98
2022-08-10T13:03:03.696Z,98094.57
2022-08-10T13:06:02.061Z,98091.52
2022-08-10T13:08:42.665Z,98086.58
2022-08-10T13:12:33.871Z,98085.91
2022-08-10T13:14:10.259Z,98084.55
2022-08-10T13:16:41.096Z,98082.13
2022-08-10T13:19:11.366Z,98078.73
2022-08-10T13:21:41.751Z,98079.59
2022-08-10T13:24:20.427Z,98079.40
2022-08-10T13:27:26.134Z,98074.16
2022-08-10T13:30:10.299Z,98070.11
2022-08-10T13:32:40.622Z,98066.40
2022-08-10T13:35:12.522Z,98060.35
2022-08-10T13:37:45.221Z,98057.03
2022-08-10T13:40:16.478Z,98055.66
2022-08-10T13:42:45.993Z,98052.75
2022-08-10T13:45:18.059Z,98051.27
2022-08-10T13:47:50.318Z,98049.23
2022-08-10T13:50:34.810Z,98044.86
2022-08-10T13:53:14.477Z,98045.61
2022-08-10T13:55:54.314Z,98045.88
2022-08-10T13:58:37.673Z,98047.24
2022-08-10T14:01:15.426Z,98049.52
2022-08-10T14:03:45.888Z,98049.58
2022-08-10T14:06:17.477Z,98047.33
2022-08-10T14:08:57.953Z,98039.66
2022-08-10T14:11:29.294Z,98038.71
2022-08-10T14:14:24.767Z,98035.13
2022-08-10T14:16:54.178Z,98037.10
2022-08-10T14:19:29.768Z,98037.68
2022-08-10T14:21:58.064Z,98035.13
2022-08-10T14:24:28.408Z,98038.60
2022-08-10T14:27:06.169Z,98038.72
2022-08-10T14:29:42.743Z,98039.86
2022-08-10T14:32:13.057Z,98038.96
2022-08-10T14:36:16.111Z,98036.52
2022-08-10T14:37:38.768Z,98035.30
2022-08-10T14:40:14.657Z,98036.00
2022-08-10T14:43:06.582Z,98031.60
2022-08-10T14:45:37.412Z,98027.86
2022-08-10T14:48:16.138Z,98025.27
2022-08-10T14:50:55.453Z,98022.27
2022-08-10T14:53:28.281Z,98019.99
2022-08-10T14:56:03.559Z,98024.84
2022-08-10T14:58:38.922Z,98028.58
2022-08-10T15:01:59.879Z,98030.86
2022-08-10T15:04:22.313Z,98032.72
2022-08-10T15:06:56.035Z,98031.70
2022-08-10T15:09:30.578Z,98034.23
2022-08-10T15:12:25.038Z,98038.08
2022-08-10T15:15:00.581Z,98035.98
2022-08-10T15:17:35.056Z,98035.77
2022-08-10T15:20:21.135Z,98038.20
2022-08-10T15:23:01.219Z,98035.95
2022-08-10T15:25:31.334Z,98033.52
2022-08-10T15:28:12.114Z,98036.91
2022-08-10T15:30:43.276Z,98038.63
2022-08-10T15:34:03.153Z,98036.16
2022-08-10T15:36:43.341Z,98037.39
2022-08-10T15:40:20.715Z,98036.20
2022-08-10T15:42:18.051Z,98036.11
2022-08-10T15:44:50.188Z,98036.57
2022-08-10T15:47:45.278Z,98032.28
2022-08-10T15:50:54.051Z,98028.69
2022-08-10T15:53:49.144Z,98028.02
2022-08-10T15:56:30.828Z,98027.02
2022-08-10T15:59:31.970Z,98028.69
2022-08-10T16:02:24.743Z,98032.64
2022-08-10T16:04:59.685Z,98033.90
2022-08-10T16:07:49.086Z,98035.55
2022-08-10T16:10:28.597Z,98034.91
2022-08-10T16:13:59.492Z,98034.61
2022-08-10T16:16:00.979Z,98036.77
2022-08-10T16:18:31.911Z,98038.34
2022-08-10T16:21:02.982Z,98040.76
2022-08-10T16:23:41.076Z,98039.73
2022-08-10T16:26:15.391Z,98042.75
2022-08-10T16:28:50.317Z,98044.88
2022-08-10T16:31:22.452Z,98048.89
2022-08-10T16:33:54.940Z,98051.42
2022-08-10T16:36:33.607Z,98050.91
2022-08-10T16:39:02.985Z,98053.66
2022-08-10T16:42:04.567Z,98057.29
2022-08-10T16:44:23.584Z,98062.34
2022-08-10T16:46:52.525Z,98059.45
2022-08-10T16:49:24.247Z,98058.73
2022-08-10T16:51:53.371Z,98064.62
2022-08-10T16:54:27.317Z,98067.66
2022-08-10T16:57:02.543Z,98070.30
2022-08-10T16:59:34.136Z,98071.89
2022-08-10T17:02:05.131Z,98075.95
2022-08-10T17:04:36.565Z,98077.45
2022-08-10T17:07:14.547Z,98082.17
2022-08-10T17:09:49.377Z,98083.05
2022-08-10T17:12:24.513Z,98090.28
2022-08-10T17:15:09.186Z,98091.48
2022-08-10T17:17:51.787Z,98093.77
2022-08-10T17:20:31.859Z,98097.46
2022-08-10T17:23:05.205Z,98099.25
2022-08-10T17:25:46.432Z,98101.43
2022-08-10T17:28:33.055Z,98107.15
2022-08-10T17:31:23.992Z,98101.10
2022-08-10T17:34:03.467Z,98099.47
2022-08-10T17:36:36.175Z,98099.58
2022-08-10T17:39:08.796Z,98100.46
2022-08-10T17:41:37.947Z,98101.67
2022-08-10T17:44:08.227Z,98099.77
2022-08-10T17:46:43.844Z,98105.10
2022-08-10T17:49:15.885Z,98108.84
2022-08-10T17:51:53.608Z,98107.73
2022-08-10T17:54:27.425Z,98105.91
2022-08-10T17:57:02.115Z,98106.58
2022-08-10T17:59:32.169Z,98108.63
2022-08-10T18:02:06.781Z,98111.66
2022-08-10T18:04:42.272Z,98112.16
2022-08-10T18:07:12.587Z,98112.27
2022-08-10T18:09:49.920Z,98109.98
2022-08-10T18:12:32.522Z,98113.20
2022-08-10T18:15:13.424Z,98114.39
2022-08-10T18:17:49.474Z,98112.81
2022-08-10T18:20:20.369Z,98116.16
2022-08-10T18:22:59.300Z,98122.00
2022-08-10T18:25:32.967Z,98123.46
2022-08-10T18:28:05.196Z,98125.89
2022-08-10T18:30:45.414Z,98126.53
2022-08-10T18:33:16.104Z,98127.66
2022-08-10T18:35:46.080Z,98129.25
2022-08-10T18:38:16.739Z,98131.20
2022-08-10T18:40:57.690Z,98135.62
2022-08-10T18:44:12.238Z,98135.14
2022-08-10T18:46:47.316Z,98136.83
2022-08-10T18:49:38.492Z,98138.95
2022-08-10T18:52:12.322Z,98136.25
2022-08-10T18:54:47.228Z,98137.82
2022-08-10T18:57:39.778Z,98139.41
2022-08-10T19:00:11.362Z,98142.34
2022-08-10T19:03:07.392Z,98141.15
2022-08-10T19:05:58.169Z,98137.14
2022-08-10T19:08:49.539Z,98141.61
2022-08-10T19:11:34.636Z,98143.30
2022-08-10T19:14:14.090Z,98146.06
2022-08-10T19:16:49.126Z,98146.98
2022-08-10T19:19:48.021Z,98149.85
2022-08-10T19:22:32.703Z,98153.05
2022-08-10T19:26:41.900Z,98153.23
2022-08-10T19:28:54.533Z,98152.48
2022-08-10T19:31:45.647Z,98151.76
2022-08-10T19:34:42.799Z,98150.33
2022-08-10T19:37:33.023Z,98150.47
2022-08-10T19:40:44.013Z,98154.19
2022-08-10T19:44:00.918Z,98153.96
2022-08-10T19:46:42.682Z,98150.40
2022-08-10T19:49:23.287Z,98148.55
2022-08-10T19:52:10.778Z,98150.62
2022-08-10T19:55:04.852Z,98149.36
2022-08-10T19:57:42.453Z,98151.69
2022-08-10T20:00:22.751Z,98152.21
2022-08-10T20:03:10.628Z,98149.65
2022-08-10T20:06:19.069Z,98149.14
2022-08-10T20:08:59.336Z,98148.30
2022-08-10T20:11:49.201Z,98145.93
2022-08-10T20:14:31.372Z,98141.27
2022-08-10T20:17:26.034Z,98141.31
2022-08-10T20:20:03.936Z,98136.66
2022-08-10T20:22:46.026Z,98132.64
2022-08-10T20:25:20.886Z,98134.59
2022-08-10T20:28:17.887Z,98132.01
2022-08-10T20:30:52.887Z,98128.81
2022-08-10T20:33:33.482Z,98129.02
2022-08-10T20:36:25.858Z,98128.35
2022-08-10T20:39:10.350Z,98127.98
2022-08-10T20:41:48.490Z,98128.08
2022-08-10T20:44:31.613Z,98124.80
2022-08-10T20:47:05.835Z,98122.31
2022-08-10T20:49:46.086Z,98122.86
2022-08-10T20:52:15.084Z,98123.51
2022-08-10T20:55:02.325Z,98122.40
2022-08-10T20:57:56.444Z,98124.05
2022-08-10T21:00:48.573Z,98125.33
2022-08-10T21:03:45.876Z,98126.70
2022-08-10T21:06:43.405Z,98122.10
2022-08-10T21:09:21.553Z,98120.92
2022-08-10T21:12:04.457Z,98118.03
2022-08-10T21:14:48.012Z,98117.77
2022-08-10T21:17:51.557Z,98121.82
2022-08-10T21:20:47.059Z,98125.81
2022-08-10T21:23:18.061Z,98125.52
2022-08-10T21:26:08.127Z,98122.52
2022-08-10T21:28:51.784Z,98124.84
2022-08-10T21:32:00.890Z,98122.33
2022-08-10T21:35:02.581Z,98122.80
2022-08-10T21:38:28.713Z,98125.06
2022-08-10T21:41:57.632Z,98120.18
2022-08-10T21:45:08.062Z,98121.48
2022-08-10T21:48:39.022Z,98124.48
2022-08-10T21:52:01.740Z,98121.47
2022-08-10T21:55:22.278Z,98118.21
2022-08-10T21:58:18.512Z,98116.33
2022-08-10T22:01:17.632Z,98111.75
2022-08-10T22:04:05.342Z,98110.95
2022-08-10T22:06:56.151Z,98112.02
2022-08-10T22:09:50.125Z,98115.78
2022-08-10T22:12:46.989Z,98116.63
2022-08-10T22:16:03.467Z,98117.20
2022-08-10T22:18:53.742Z,98114.29
2022-08-10T22:22:07.623Z,98111.50
2022-08-10T22:25:16.822Z,98109.68
2022-08-10T22:28:13.231Z,98109.43
2022-08-10T22:31:32.969Z,98113.08
2022-08-10T22:34:58.194Z,98115.21
2022-08-10T22:38:07.775Z,98112.30
2022-08-10T22:40:55.569Z,98107.16
2022-08-10T22:43:51.899Z,98102.79
2022-08-10T22:46:46.090Z,98101.19
2022-08-10T22:49:22.258Z,98100.59
2022-08-10T22:52:17.973Z,98101.13
2022-08-10T22:55:13.737Z,98099.35
2022-08-10T22:58:08.893Z,98097.46
2022-08-10T23:00:38.605Z,98092.52
2022-08-10T23:03:22.567Z,98088.77
2022-08-10T23:06:06.728Z,98092.19
2022-08-10T23:08:50.271Z,98088.02
2022-08-10T23:11:32.527Z,98085.22
2022-08-10T23:14:04.522Z,98081.98
2022-08-10T23:17:01.644Z,98082.33
2022-08-10T23:19:33.329Z,98076.68
2022-08-10T23:22:10.600Z,98075.40
2022-08-10T23:25:04.990Z,98076.18
2022-08-10T23:27:37.870Z,98076.47
2022-08-10T23:30:17.080Z,98077.33
2022-08-10T23:32:51.363Z,98079.52
2022-08-10T23:36:05.480Z,98081.06
2022-08-10T23:38:21.210Z,98079.58
2022-08-10T23:40:53.734Z,98081.13
2022-08-10T23:43:53.341Z,98083.76
2022-08-10T23:46:24.400Z,98084.41
2022-08-10T23:48:54.892Z,98083.76
2022-08-10T23:51:55.526Z,98085.92
2022-08-10T23:54:26.648Z,98087.55
2022-08-10T23:57:01.434Z,98086.38
2022-08-10T23:59:32.181Z,98084.08
